createdAt,value
2023-04-09T00:02:10.365Z,99.90
2023-04-09T00:04:37.853Z,99.90
2023-04-09T00:07:05.222Z,99.90
2023-04-09T00:09:32.602Z,99.90
2023-04-09T00:11:59.941Z,99.90
2023-04-09T00:14:27.240Z,99.90
2023-04-09T00:16:54.715Z,99.90
2023-04-09T00:19:21.999Z,99.90
2023-04-09T00:21:49.417Z,99.90
2023-04-09T00:24:16.759Z,99.90
2023-04-09T00:26:44.225Z,99.90
2023-04-09T00:29:11.573Z,99.90
2023-04-09T00:31:38.901Z,99.90
2023-04-09T00:34:07.084Z,99.90
2023-04-09T00:36:34.409Z,99.90
2023-04-09T00:39:01.758Z,99.90
2023-04-09T00:41:29.093Z,99.90
2023-04-09T00:43:57.334Z,99.90
2023-04-09T00:46:24.742Z,99.90
2023-04-09T00:48:52.343Z,99.90
2023-04-09T00:51:20.577Z,99.90
2023-04-09T00:53:47.906Z,99.90
2023-04-09T00:56:16.022Z,99.90
2023-04-09T00:58:43.351Z,99.90
2023-04-09T01:01:10.899Z,99.90
2023-04-09T01:03:38.317Z,99.90
2023-04-09T01:06:11.390Z,99.90
2023-04-09T01:08:44.532Z,99.90
2023-04-09T01:11:31.014Z,99.90
2023-04-09T01:14:03.902Z,99.90
2023-04-09T01:16:31.994Z,99.90
2023-04-09T01:19:02.356Z,99.90
2023-04-09T01:21:33.420Z,99.90
2023-04-09T01:24:38.711Z,99.90
2023-04-09T01:27:06.690Z,99.90
2023-04-09T01:29:57.849Z,99.90
2023-04-09T01:32:25.421Z,99.90
2023-04-09T01:34:52.788Z,99.90
2023-04-09T01:37:20.522Z,99.90
2023-04-09T01:39:47.864Z,99.90
2023-04-09T01:42:15.522Z,99.90
2023-04-09T01:44:42.875Z,99.90
2023-04-09T01:47:10.244Z,99.90
2023-04-09T01:49:38.450Z,99.90
2023-04-09T01:52:05.912Z,99.90
2023-04-09T01:54:33.454Z,99.90
2023-04-09T01:57:01.196Z,99.90
2023-04-09T01:59:28.499Z,99.90
2023-04-09T02:02:04.647Z,99.90
2023-04-09T02:04:43.880Z,99.90
2023-04-09T02:07:24.947Z,99.90
2023-04-09T02:09:52.744Z,99.90
2023-04-09T02:12:20.503Z,99.90
2023-04-09T02:14:48.222Z,99.90
2023-04-09T02:17:15.610Z,99.90
2023-04-09T02:19:44.671Z,99.90
2023-04-09T02:22:12.176Z,99.90
2023-04-09T02:24:40.518Z,99.90
2023-04-09T02:27:07.982Z,99.90
2023-04-09T02:29:35.354Z,99.90
2023-04-09T02:32:02.718Z,99.90
2023-04-09T02:34:30.284Z,99.90
2023-04-09T02:36:57.640Z,99.90
2023-04-09T02:39:25.155Z,99.90
2023-04-09T02:41:52.737Z,99.90
2023-04-09T02:44:20.168Z,99.90
2023-04-09T02:46:49.209Z,99.90
2023-04-09T02:49:16.836Z,99.90
2023-04-09T02:51:44.175Z,99.90
2023-04-09T02:54:11.513Z,99.90
2023-04-09T02:56:38.892Z,99.90
2023-04-09T02:59:06.170Z,99.90
2023-04-09T03:01:33.677Z,99.90
2023-04-09T03:04:01.792Z,99.90
2023-04-09T03:06:29.313Z,99.90
2023-04-09T03:08:56.652Z,99.90
2023-04-09T03:11:23.988Z,99.90
2023-04-09T03:13:51.337Z,99.90
2023-04-09T03:16:19.286Z,99.90
2023-04-09T03:18:46.701Z,99.90
2023-04-09T03:21:14.961Z,99.90
2023-04-09T03:23:47.639Z,99.90
2023-04-09T03:26:14.934Z,99.90
2023-04-09T03:28:47.206Z,99.90
2023-04-09T03:31:14.746Z,99.90
2023-04-09T03:33:43.553Z,99.90
2023-04-09T03:36:11.818Z,99.90
2023-04-09T03:38:53.567Z,99.90
2023-04-09T03:41:32.074Z,99.90
2023-04-09T03:44:03.383Z,99.90
2023-04-09T03:46:37.330Z,99.90
2023-04-09T03:49:07.850Z,99.90
2023-04-09T03:51:41.955Z,99.90
2023-04-09T03:54:09.591Z,99.90
2023-04-09T03:56:37.117Z,99.90
2023-04-09T03:59:09.126Z,99.90
2023-04-09T04:01:40.487Z,99.90
2023-04-09T04:04:08.050Z,99.90
2023-04-09T04:06:44.544Z,99.90
2023-04-09T04:09:30.486Z,99.90
2023-04-09T04:12:05.817Z,99.90
2023-04-09T04:14:53.190Z,99.90
2023-04-09T04:17:26.546Z,99.90
2023-04-09T04:19:55.304Z,99.90
2023-04-09T04:22:26.097Z,99.90
2023-04-09T04:24:56.359Z,99.90
2023-04-09T04:27:24.239Z,99.90
2023-04-09T04:29:51.762Z,99.90
2023-04-09T04:32:37.667Z,99.90
2023-04-09T04:35:09.414Z,99.90
2023-04-09T04:37:37.031Z,99.90
2023-04-09T04:40:05.457Z,99.90
2023-04-09T04:42:36.181Z,99.90
2023-04-09T04:45:09.983Z,99.90
2023-04-09T04:48:03.323Z,99.90
2023-04-09T04:50:31.287Z,99.90
2023-04-09T04:53:07.928Z,99.90
2023-04-09T04:55:43.854Z,99.90
2023-04-09T04:58:14.694Z,99.90
2023-04-09T05:00:46.885Z,99.90
2023-04-09T05:03:15.072Z,99.90
2023-04-09T05:05:53.862Z,99.90
2023-04-09T05:08:22.123Z,99.90
2023-04-09T05:10:55.960Z,99.90
2023-04-09T05:13:26.471Z,99.90
2023-04-09T05:15:54.261Z,99.90
2023-04-09T05:18:21.737Z,99.90
2023-04-09T05:20:49.074Z,99.90
2023-04-09T05:23:17.295Z,99.90
2023-04-09T05:25:51.476Z,99.90
2023-04-09T05:28:27.612Z,99.90
2023-04-09T05:31:11.752Z,99.90
2023-04-09T05:33:44.102Z,99.90
2023-04-09T05:36:18.568Z,99.90
2023-04-09T05:38:49.005Z,99.90
2023-04-09T05:41:16.301Z,99.90
2023-04-09T05:44:00.787Z,99.90
2023-04-09T05:46:29.219Z,99.90
2023-04-09T05:48:57.684Z,99.90
2023-04-09T05:51:27.356Z,99.90
2023-04-09T05:53:56.918Z,99.90
2023-04-09T05:56:24.351Z,99.90
2023-04-09T05:58:55.632Z,99.90
2023-04-09T06:01:23.241Z,99.90
2023-04-09T06:03:50.901Z,99.90
2023-04-09T06:06:18.569Z,99.90
2023-04-09T06:08:46.079Z,99.90
2023-04-09T06:11:13.468Z,99.90
2023-04-09T06:13:41.473Z,99.90
2023-04-09T06:16:09.279Z,99.90
2023-04-09T06:18:39.759Z,99.90
2023-04-09T06:21:07.661Z,99.90
2023-04-09T06:23:35.850Z,99.90
2023-04-09T06:26:03.188Z,99.90
2023-04-09T06:28:31.542Z,99.90
2023-04-09T06:30:59.031Z,99.90
2023-04-09T06:33:28.492Z,99.90
2023-04-09T06:35:56.303Z,99.90
2023-04-09T06:38:23.710Z,99.90
2023-04-09T06:40:52.024Z,99.90
2023-04-09T06:43:19.497Z,99.90
2023-04-09T06:45:51.441Z,99.90
2023-04-09T06:48:18.762Z,99.90
2023-04-09T06:50:46.109Z,99.90
2023-04-09T06:53:14.692Z,99.90
2023-04-09T06:55:42.177Z,99.90
2023-04-09T06:58:09.491Z,99.90
2023-04-09T07:00:36.807Z,99.90
2023-04-09T07:03:05.525Z,99.90
2023-04-09T07:05:33.261Z,99.90
2023-04-09T07:08:00.627Z,99.90
2023-04-09T07:10:27.942Z,99.90
2023-04-09T07:12:55.218Z,99.90
2023-04-09T07:15:22.605Z,99.90
2023-04-09T07:17:50.012Z,99.90
2023-04-09T07:20:17.497Z,99.90
2023-04-09T07:22:44.814Z,99.90
2023-04-09T07:25:12.170Z,99.90
2023-04-09T07:27:39.473Z,99.90
2023-04-09T07:30:07.439Z,99.90
2023-04-09T07:32:34.761Z,99.90
2023-04-09T07:35:03.127Z,99.90
2023-04-09T07:37:30.528Z,99.90
2023-04-09T07:39:57.887Z,99.90
2023-04-09T07:42:25.690Z,99.90
2023-04-09T07:44:53.692Z,99.90
2023-04-09T07:47:21.752Z,99.90
2023-04-09T07:49:49.263Z,99.90
2023-04-09T07:52:16.680Z,99.90
2023-04-09T07:54:44.034Z,99.90
2023-04-09T07:57:11.410Z,99.90
2023-04-09T07:59:38.784Z,99.90
2023-04-09T08:02:06.611Z,99.90
2023-04-09T08:04:34.200Z,99.90
2023-04-09T08:07:01.596Z,99.90
2023-04-09T08:09:28.930Z,99.90
2023-04-09T08:11:57.227Z,99.90
2023-04-09T08:14:24.573Z,99.90
2023-04-09T08:16:52.005Z,99.90
2023-04-09T08:19:20.350Z,99.90
2023-04-09T08:21:49.584Z,99.90
2023-04-09T08:24:17.238Z,99.90
2023-04-09T08:26:44.908Z,99.90
2023-04-09T08:29:12.974Z,99.90
2023-04-09T08:31:40.394Z,99.90
2023-04-09T08:34:07.818Z,99.80
2023-04-09T08:36:35.848Z,99.00
2023-04-09T08:39:03.688Z,98.40
2023-04-09T08:41:31.287Z,98.50
2023-04-09T08:43:59.778Z,98.30
2023-04-09T08:46:27.965Z,97.40
2023-04-09T08:48:55.739Z,98.00
2023-04-09T08:51:24.839Z,96.90
2023-04-09T08:54:00.198Z,97.00
2023-04-09T08:56:29.556Z,96.80
2023-04-09T08:58:56.964Z,96.60
2023-04-09T09:01:28.635Z,96.30
2023-04-09T09:04:04.286Z,95.80
2023-04-09T09:06:33.873Z,95.20
2023-04-09T09:09:14.653Z,94.80
2023-04-09T09:11:42.539Z,94.70
2023-04-09T09:14:14.149Z,95.20
2023-04-09T09:16:43.522Z,95.80
2023-04-09T09:19:26.536Z,95.90
2023-04-09T09:21:57.553Z,96.20
2023-04-09T09:24:24.836Z,96.40
2023-04-09T09:26:52.518Z,96.30
2023-04-09T09:29:20.151Z,95.90
2023-04-09T09:31:49.449Z,95.00
2023-04-09T09:34:17.469Z,94.60
2023-04-09T09:36:45.037Z,94.90
2023-04-09T09:39:13.210Z,95.00
2023-04-09T09:41:41.713Z,95.00
2023-04-09T09:44:10.385Z,95.10
2023-04-09T09:46:39.297Z,95.00
2023-04-09T09:49:07.079Z,94.30
2023-04-09T09:51:39.446Z,94.00
2023-04-09T09:54:08.245Z,93.40
2023-04-09T09:56:37.092Z,93.90
2023-04-09T09:59:08.174Z,93.70
2023-04-09T10:01:36.636Z,93.60
2023-04-09T10:04:05.888Z,93.80
2023-04-09T10:06:34.525Z,93.80
2023-04-09T10:09:04.788Z,93.20
2023-04-09T10:11:33.655Z,92.50
2023-04-09T10:14:01.168Z,92.70
2023-04-09T10:16:28.616Z,92.50
2023-04-09T10:18:56.517Z,92.90
2023-04-09T10:21:37.102Z,92.60
2023-04-09T10:24:06.562Z,92.60
2023-04-09T10:26:34.354Z,93.30
2023-04-09T10:29:08.635Z,92.30
2023-04-09T10:31:55.899Z,92.10
2023-04-09T10:34:24.406Z,92.30
2023-04-09T10:36:55.417Z,92.10
2023-04-09T10:39:27.142Z,91.60
2023-04-09T10:41:54.774Z,92.10
2023-04-09T10:44:27.104Z,92.50
2023-04-09T10:46:58.508Z,91.50
2023-04-09T10:49:26.562Z,92.40
2023-04-09T10:52:09.560Z,91.90
2023-04-09T10:54:48.338Z,91.30
2023-04-09T10:57:20.165Z,91.40
2023-04-09T10:59:49.317Z,91.50
2023-04-09T11:02:37.950Z,91.80
2023-04-09T11:05:24.361Z,92.10
2023-04-09T11:07:58.711Z,92.40
2023-04-09T11:10:26.793Z,92.40
2023-04-09T11:12:56.787Z,91.50
2023-04-09T11:15:24.101Z,91.40
2023-04-09T11:17:51.492Z,90.90
2023-04-09T11:20:23.083Z,90.50
2023-04-09T11:22:51.485Z,89.30
2023-04-09T11:25:23.908Z,85.90
2023-04-09T11:27:51.326Z,86.20
2023-04-09T11:30:18.863Z,83.80
2023-04-09T11:32:46.450Z,80.00
2023-04-09T11:35:14.904Z,79.20
2023-04-09T11:37:42.926Z,79.60
2023-04-09T11:40:17.032Z,78.10
2023-04-09T11:42:45.096Z,78.30
2023-04-09T11:45:12.659Z,79.00
2023-04-09T11:47:41.698Z,79.80
2023-04-09T11:50:11.990Z,79.80
2023-04-09T11:52:40.187Z,80.00
2023-04-09T11:55:08.657Z,80.40
2023-04-09T11:57:46.583Z,79.40
2023-04-09T12:00:14.973Z,79.50
2023-04-09T12:02:58.493Z,80.70
2023-04-09T12:05:29.047Z,80.00
2023-04-09T12:08:04.971Z,80.40
2023-04-09T12:10:33.781Z,81.30
2023-04-09T12:13:10.201Z,82.70
2023-04-09T12:15:38.869Z,83.50
2023-04-09T12:18:08.514Z,83.30
2023-04-09T12:20:36.695Z,84.00
2023-04-09T12:23:04.882Z,83.20
2023-04-09T12:25:36.944Z,83.00
2023-04-09T12:28:05.632Z,84.50
2023-04-09T12:30:33.656Z,84.30
2023-04-09T12:33:01.469Z,84.50
2023-04-09T12:35:29.298Z,85.10
2023-04-09T12:37:56.774Z,85.40
2023-04-09T12:40:24.134Z,84.50
2023-04-09T12:42:51.709Z,84.40
2023-04-09T12:45:19.697Z,82.90
2023-04-09T12:47:47.411Z,84.30
2023-04-09T12:50:16.113Z,84.70
2023-04-09T12:52:44.252Z,84.20
2023-04-09T12:55:12.010Z,82.80
2023-04-09T12:57:39.692Z,83.70
2023-04-09T13:00:07.999Z,84.00
2023-04-09T13:02:36.033Z,83.50
2023-04-09T13:05:04.452Z,83.90
2023-04-09T13:07:31.859Z,84.10
2023-04-09T13:09:59.169Z,84.70
2023-04-09T13:12:26.783Z,84.80
2023-04-09T13:14:54.463Z,87.40
2023-04-09T13:17:22.301Z,87.00
2023-04-09T13:19:50.670Z,86.60
2023-04-09T13:22:18.740Z,86.60
2023-04-09T13:24:46.195Z,87.10
2023-04-09T13:27:14.099Z,88.20
2023-04-09T13:29:41.490Z,89.10
2023-04-09T13:32:10.780Z,88.60
2023-04-09T13:34:38.703Z,89.00
2023-04-09T13:37:06.231Z,89.80
2023-04-09T13:39:33.595Z,89.80
2023-04-09T13:42:07.341Z,89.50
2023-04-09T13:44:37.565Z,90.10
2023-04-09T13:47:04.902Z,89.00
2023-04-09T13:49:32.209Z,88.80
2023-04-09T13:51:59.571Z,89.60
2023-04-09T13:54:27.204Z,89.40
2023-04-09T13:56:54.528Z,89.60
2023-04-09T13:59:21.857Z,88.80
2023-04-09T14:01:49.264Z,87.30
2023-04-09T14:04:16.743Z,87.40
2023-04-09T14:06:44.192Z,87.50
2023-04-09T14:09:11.625Z,86.50
2023-04-09T14:11:39.036Z,85.20
2023-04-09T14:14:06.452Z,84.50
2023-04-09T14:16:33.911Z,84.70
2023-04-09T14:19:01.589Z,85.60
2023-04-09T14:21:29.288Z,86.80
2023-04-09T14:23:56.623Z,87.30
2023-04-09T14:26:24.367Z,86.10
2023-04-09T14:28:52.223Z,85.00
2023-04-09T14:31:22.622Z,85.20
2023-04-09T14:33:50.317Z,83.00
2023-04-09T14:36:17.771Z,81.80
2023-04-09T14:38:45.898Z,82.70
2023-04-09T14:41:13.296Z,80.80
2023-04-09T14:43:40.830Z,79.80
2023-04-09T14:46:11.699Z,81.30
2023-04-09T14:48:39.977Z,80.00
2023-04-09T14:51:11.252Z,82.00
2023-04-09T14:53:38.685Z,83.80
2023-04-09T14:56:06.648Z,83.40
2023-04-09T14:58:34.011Z,83.90
2023-04-09T15:01:01.455Z,85.40
2023-04-09T15:03:28.947Z,86.80
2023-04-09T15:05:56.846Z,87.20
2023-04-09T15:08:24.164Z,87.40
2023-04-09T15:10:51.532Z,87.20
2023-04-09T15:13:18.852Z,86.60
2023-04-09T15:15:46.463Z,85.80
2023-04-09T15:18:13.750Z,84.60
2023-04-09T15:20:42.366Z,83.60
2023-04-09T15:23:12.906Z,83.40
2023-04-09T15:25:40.282Z,82.90
2023-04-09T15:28:07.673Z,82.30
2023-04-09T15:30:35.519Z,82.00
2023-04-09T15:33:02.986Z,81.80
2023-04-09T15:35:30.595Z,82.80
2023-04-09T15:37:58.097Z,82.30
2023-04-09T15:40:25.446Z,82.60
2023-04-09T15:42:52.735Z,81.40
2023-04-09T15:45:20.137Z,81.40
2023-04-09T15:47:47.465Z,80.50
2023-04-09T15:50:14.776Z,80.50
2023-04-09T15:52:42.161Z,80.30
2023-04-09T15:55:10.006Z,80.10
2023-04-09T15:57:38.538Z,80.90
2023-04-09T16:00:09.723Z,81.00
2023-04-09T16:02:38.979Z,81.50
2023-04-09T16:05:07.211Z,80.00
2023-04-09T16:07:34.650Z,80.40
2023-04-09T16:10:02.237Z,81.60
2023-04-09T16:12:29.603Z,81.40
2023-04-09T16:14:56.944Z,80.80
2023-04-09T16:17:24.349Z,80.50
2023-04-09T16:19:51.772Z,79.80
2023-04-09T16:22:19.073Z,79.40
2023-04-09T16:24:46.397Z,79.10
2023-04-09T16:27:14.468Z,79.40
2023-04-09T16:29:42.174Z,78.50
2023-04-09T16:32:09.591Z,77.10
2023-04-09T16:34:36.985Z,77.20
2023-04-09T16:37:04.351Z,76.00
2023-04-09T16:39:31.609Z,77.40
2023-04-09T16:41:59.016Z,78.20
2023-04-09T16:44:26.747Z,78.30
2023-04-09T16:46:54.140Z,77.90
2023-04-09T16:49:21.402Z,78.40
2023-04-09T16:51:50.765Z,78.40
2023-04-09T16:54:18.099Z,78.90
2023-04-09T16:56:45.448Z,79.50
2023-04-09T16:59:13.518Z,80.50
2023-04-09T17:01:41.082Z,81.20
2023-04-09T17:04:08.491Z,81.20
2023-04-09T17:06:35.806Z,82.40
2023-04-09T17:09:05.354Z,83.40
2023-04-09T17:11:34.649Z,83.10
2023-04-09T17:14:01.993Z,84.10
2023-04-09T17:16:29.420Z,84.20
2023-04-09T17:18:56.770Z,85.00
2023-04-09T17:21:24.139Z,85.20
2023-04-09T17:23:51.437Z,85.20
2023-04-09T17:26:19.006Z,85.20
2023-04-09T17:28:46.958Z,85.90
2023-04-09T17:31:15.814Z,85.60
2023-04-09T17:33:49.277Z,85.50
2023-04-09T17:36:20.394Z,85.70
2023-04-09T17:38:48.645Z,86.80
2023-04-09T17:41:16.016Z,87.10
2023-04-09T17:43:43.332Z,86.70
2023-04-09T17:46:11.628Z,86.50
2023-04-09T17:48:39.226Z,86.30
2023-04-09T17:51:07.211Z,86.20
2023-04-09T17:53:34.565Z,86.40
2023-04-09T17:56:04.030Z,86.70
2023-04-09T17:58:31.855Z,86.90
2023-04-09T18:00:59.615Z,87.70
2023-04-09T18:03:27.365Z,88.50
2023-04-09T18:05:54.975Z,88.20
2023-04-09T18:08:22.335Z,88.40
2023-04-09T18:11:04.941Z,89.20
2023-04-09T18:13:38.590Z,89.00
2023-04-09T18:16:10.113Z,89.60
2023-04-09T18:18:37.709Z,90.00
2023-04-09T18:21:06.210Z,90.20
2023-04-09T18:23:33.695Z,90.30
2023-04-09T18:26:01.067Z,90.60
2023-04-09T18:28:28.421Z,91.40
2023-04-09T18:30:55.878Z,91.20
2023-04-09T18:33:23.362Z,91.60
2023-04-09T18:35:50.707Z,91.50
2023-04-09T18:38:18.314Z,91.40
2023-04-09T18:40:45.661Z,91.60
2023-04-09T18:43:13.014Z,91.90
2023-04-09T18:45:40.808Z,92.10
2023-04-09T18:48:08.959Z,92.60
2023-04-09T18:50:36.711Z,92.80
2023-04-09T18:53:05.551Z,92.70
2023-04-09T18:55:35.835Z,93.10
2023-04-09T18:58:05.262Z,93.10
2023-04-09T19:00:32.659Z,93.40
2023-04-09T19:03:00.168Z,93.40
2023-04-09T19:05:29.598Z,93.90
2023-04-09T19:08:03.122Z,93.80
2023-04-09T19:10:30.702Z,94.20
2023-04-09T19:12:58.175Z,94.30
2023-04-09T19:15:26.686Z,94.60
2023-04-09T19:17:54.233Z,94.90
2023-04-09T19:20:21.870Z,94.70
2023-04-09T19:22:50.203Z,94.80
2023-04-09T19:25:18.343Z,95.10
2023-04-09T19:27:45.816Z,95.40
2023-04-09T19:30:13.308Z,95.70
2023-04-09T19:32:41.679Z,96.10
2023-04-09T19:35:09.250Z,96.20
2023-04-09T19:37:36.589Z,96.30
2023-04-09T19:40:04.661Z,96.30
2023-04-09T19:42:34.743Z,96.40
2023-04-09T19:45:02.061Z,96.70
2023-04-09T19:47:29.497Z,97.00
2023-04-09T19:49:57.277Z,96.90
2023-04-09T19:52:24.941Z,97.10
2023-04-09T19:54:56.324Z,97.20
2023-04-09T19:57:23.795Z,97.60
2023-04-09T19:59:52.293Z,97.60
2023-04-09T20:02:19.890Z,97.90
2023-04-09T20:04:47.388Z,98.20
2023-04-09T20:07:15.648Z,98.30
2023-04-09T20:09:43.582Z,98.40
2023-04-09T20:12:11.116Z,98.40
2023-04-09T20:14:39.261Z,98.70
2023-04-09T20:17:08.743Z,98.70
2023-04-09T20:19:36.181Z,98.80
2023-04-09T20:22:03.551Z,99.00
2023-04-09T20:24:30.924Z,99.20
2023-04-09T20:26:59.653Z,99.40
2023-04-09T20:29:27.123Z,99.50
2023-04-09T20:31:54.603Z,99.90
2023-04-09T20:34:26.591Z,99.90
2023-04-09T20:36:54.537Z,99.90
2023-04-09T20:39:22.347Z,99.90
2023-04-09T20:41:49.653Z,99.90
2023-04-09T20:44:16.983Z,99.90
2023-04-09T20:46:44.358Z,99.90
2023-04-09T20:49:12.237Z,99.90
2023-04-09T20:51:39.927Z,99.90
2023-04-09T20:54:07.257Z,99.90
2023-04-09T20:56:34.911Z,99.90
2023-04-09T20:59:02.284Z,99.90
2023-04-09T21:01:29.954Z,99.90
2023-04-09T21:03:57.543Z,99.90
2023-04-09T21:06:25.142Z,99.90
2023-04-09T21:08:52.790Z,99.90
2023-04-09T21:11:20.546Z,99.90
2023-04-09T21:13:54.529Z,99.90
2023-04-09T21:16:23.036Z,99.90
2023-04-09T21:18:50.756Z,99.90
2023-04-09T21:21:18.359Z,99.90
2023-04-09T21:23:45.708Z,99.90
2023-04-09T21:26:14.142Z,99.90
2023-04-09T21:28:41.491Z,99.90
2023-04-09T21:31:13.047Z,99.90
2023-04-09T21:33:40.626Z,99.90
2023-04-09T21:36:08.422Z,99.90
2023-04-09T21:38:35.911Z,99.90
2023-04-09T21:41:03.228Z,99.90
2023-04-09T21:43:30.785Z,99.90
2023-04-09T21:45:58.142Z,99.90
2023-04-09T21:48:26.497Z,99.90
2023-04-09T21:50:53.928Z,99.90
2023-04-09T21:53:21.283Z,99.90
2023-04-09T21:55:48.570Z,99.90
2023-04-09T21:58:15.927Z,99.90
2023-04-09T22:00:43.270Z,99.90
2023-04-09T22:03:11.165Z,99.90
2023-04-09T22:05:38.689Z,99.90
2023-04-09T22:08:06.185Z,99.90
2023-04-09T22:10:33.590Z,99.90
2023-04-09T22:13:01.218Z,99.90
2023-04-09T22:15:29.065Z,99.90
2023-04-09T22:17:56.488Z,99.90
2023-04-09T22:20:26.176Z,99.90
2023-04-09T22:22:54.185Z,99.90
2023-04-09T22:25:22.182Z,99.90
2023-04-09T22:27:53.450Z,99.90
2023-04-09T22:30:21.827Z,99.90
2023-04-09T22:32:49.941Z,99.90
2023-04-09T22:35:18.384Z,99.90
2023-04-09T22:37:46.949Z,99.90
2023-04-09T22:40:15.555Z,99.90
2023-04-09T22:42:43.676Z,99.90
2023-04-09T22:45:11.250Z,99.90
2023-04-09T22:47:38.908Z,99.90
2023-04-09T22:50:07.585Z,99.90
2023-04-09T22:52:37.114Z,99.90
2023-04-09T22:55:05.089Z,99.90
2023-04-09T22:57:32.508Z,99.90
2023-04-09T22:59:59.878Z,99.90
2023-04-09T23:02:27.583Z,99.90
2023-04-09T23:04:55.124Z,99.90
2023-04-09T23:07:22.501Z,99.90
2023-04-09T23:09:49.891Z,99.90
2023-04-09T23:12:17.162Z,99.90
2023-04-09T23:14:44.460Z,99.90
2023-04-09T23:17:11.754Z,99.90
2023-04-09T23:19:39.058Z,99.90
2023-04-09T23:22:06.738Z,99.90
2023-04-09T23:24:34.066Z,99.90
2023-04-09T23:27:02.164Z,99.90
2023-04-09T23:29:29.435Z,99.90
2023-04-09T23:31:56.809Z,99.90
2023-04-09T23:34:24.127Z,99.90
2023-04-09T23:36:51.660Z,99.90
2023-04-09T23:39:18.971Z,99.90
2023-04-09T23:41:46.321Z,99.90
2023-04-09T23:44:13.671Z,99.90
2023-04-09T23:46:41.640Z,99.90
2023-04-09T23:49:09.056Z,99.90
2023-04-09T23:51:36.429Z,99.90
2023-04-09T23:54:03.853Z,99.90
2023-04-09T23:56:31.317Z,99.90
2023-04-09T23:58:58.778Z,99.90
